sensor_id;sensor_type;location;lat;lon;timestamp;P1;durP1;ratioP1;P2;durP2;ratioP2
15012;SDS011;7603;49.432;11.418;2024-01-07T00:00:00;25.48;;;18.33;;
15012;SDS011;7603;49.432;11.418;2024-01-07T00:02:26;34.63;;;18.43;;
15012;SDS011;7603;49.432;11.418;2024-01-07T00:04:52;25.35;;;16.55;;
15012;SDS011;7603;49.432;11.418;2024-01-07T00:07:18;30.10;;;17.60;;
15012;SDS011;7603;49.432;11.418;2024-01-07T00:09:45;29.08;;;17.00;;
15012;SDS011;7603;49.432;11.418;2024-01-07T00:12:11;25.20;;;17.08;;
15012;SDS011;7603;49.432;11.418;2024-01-07T00:14:36;25.33;;;17.85;;
15012;SDS011;7603;49.432;11.418;2024-01-07T00:17:02;26.57;;;19.23;;
15012;SDS011;7603;49.432;11.418;2024-01-07T00:19:28;24.15;;;17.00;;
15012;SDS011;7603;49.432;11.418;2024-01-07T00:21:56;29.02;;;20.17;;
15012;SDS011;7603;49.432;11.418;2024-01-07T00:24:22;32.10;;;19.35;;
15012;SDS011;7603;49.432;11.418;2024-01-07T00:26:50;30.38;;;19.77;;
15012;SDS011;7603;49.432;11.418;2024-01-07T00:29:16;26.20;;;17.42;;
15012;SDS011;7603;49.432;11.418;2024-01-07T00:31:41;24.13;;;18.08;;
15012;SDS011;7603;49.432;11.418;2024-01-07T00:34:07;28.05;;;18.73;;
15012;SDS011;7603;49.432;11.418;2024-01-07T00:36:33;23.50;;;17.40;;
15012;SDS011;7603;49.432;11.418;2024-01-07T00:38:58;23.85;;;16.95;;
15012;SDS011;7603;49.432;11.418;2024-01-07T00:41:24;25.08;;;17.77;;
15012;SDS011;7603;49.432;11.418;2024-01-07T00:43:50;27.48;;;18.27;;
15012;SDS011;7603;49.432;11.418;2024-01-07T00:46:15;26.58;;;19.05;;
15012;SDS011;7603;49.432;11.418;2024-01-07T00:48:41;23.15;;;16.30;;
15012;SDS011;7603;49.432;11.418;2024-01-07T00:51:06;21.55;;;16.00;;
15012;SDS011;7603;49.432;11.418;2024-01-07T00:53:32;21.48;;;16.63;;
15012;SDS011;7603;49.432;11.418;2024-01-07T00:55:58;23.88;;;17.30;;
15012;SDS011;7603;49.432;11.418;2024-01-07T00:58:24;25.05;;;17.63;;
15012;SDS011;7603;49.432;11.418;2024-01-07T01:00:49;25.15;;;18.30;;
15012;SDS011;7603;49.432;11.418;2024-01-07T01:03:16;27.58;;;18.67;;
15012;SDS011;7603;49.432;11.418;2024-01-07T01:05:41;24.55;;;17.70;;
15012;SDS011;7603;49.432;11.418;2024-01-07T01:08:07;27.50;;;18.17;;
15012;SDS011;7603;49.432;11.418;2024-01-07T01:10:32;28.80;;;18.00;;
15012;SDS011;7603;49.432;11.418;2024-01-07T01:12:58;25.98;;;17.20;;
15012;SDS011;7603;49.432;11.418;2024-01-07T01:15:24;22.65;;;17.13;;
15012;SDS011;7603;49.432;11.418;2024-01-07T01:17:49;29.67;;;18.23;;
15012;SDS011;7603;49.432;11.418;2024-01-07T01:20:15;24.73;;;17.92;;
15012;SDS011;7603;49.432;11.418;2024-01-07T01:22:41;26.77;;;17.95;;
15012;SDS011;7603;49.432;11.418;2024-01-07T01:25:07;23.40;;;16.95;;
15012;SDS011;7603;49.432;11.418;2024-01-07T01:27:32;28.15;;;17.20;;
15012;SDS011;7603;49.432;11.418;2024-01-07T01:29:58;22.65;;;16.63;;
15012;SDS011;7603;49.432;11.418;2024-01-07T01:32:24;20.48;;;15.80;;
15012;SDS011;7603;49.432;11.418;2024-01-07T01:34:49;21.63;;;15.30;;
15012;SDS011;7603;49.432;11.418;2024-01-07T01:37:15;25.20;;;15.40;;
15012;SDS011;7603;49.432;11.418;2024-01-07T01:39:42;20.52;;;15.90;;
15012;SDS011;7603;49.432;11.418;2024-01-07T01:42:07;23.52;;;15.85;;
15012;SDS011;7603;49.432;11.418;2024-01-07T01:44:33;21.30;;;14.38;;
15012;SDS011;7603;49.432;11.418;2024-01-07T01:46:59;18.33;;;14.90;;
15012;SDS011;7603;49.432;11.418;2024-01-07T01:49:26;24.85;;;15.07;;
15012;SDS011;7603;49.432;11.418;2024-01-07T01:51:52;22.52;;;15.15;;
15012;SDS011;7603;49.432;11.418;2024-01-07T01:54:18;20.05;;;15.43;;
15012;SDS011;7603;49.432;11.418;2024-01-07T01:56:45;22.70;;;14.32;;
15012;SDS011;7603;49.432;11.418;2024-01-07T01:59:13;19.65;;;13.98;;
15012;SDS011;7603;49.432;11.418;2024-01-07T02:01:39;19.58;;;13.30;;
15012;SDS011;7603;49.432;11.418;2024-01-07T02:04:05;18.17;;;12.68;;
15012;SDS011;7603;49.432;11.418;2024-01-07T02:06:31;19.35;;;13.50;;
15012;SDS011;7603;49.432;11.418;2024-01-07T02:08:57;15.75;;;13.48;;
15012;SDS011;7603;49.432;11.418;2024-01-07T02:11:23;14.68;;;11.98;;
15012;SDS011;7603;49.432;11.418;2024-01-07T02:13:49;15.05;;;13.10;;
15012;SDS011;7603;49.432;11.418;2024-01-07T02:16:14;16.88;;;11.63;;
15012;SDS011;7603;49.432;11.418;2024-01-07T02:18:41;13.05;;;11.65;;
15012;SDS011;7603;49.432;11.418;2024-01-07T02:21:09;14.80;;;12.10;;
15012;SDS011;7603;49.432;11.418;2024-01-07T02:23:35;15.95;;;12.63;;
15012;SDS011;7603;49.432;11.418;2024-01-07T02:26:01;16.83;;;11.52;;
15012;SDS011;7603;49.432;11.418;2024-01-07T02:28:26;13.98;;;11.15;;
15012;SDS011;7603;49.432;11.418;2024-01-07T02:30:52;14.98;;;10.13;;
15012;SDS011;7603;49.432;11.418;2024-01-07T02:33:18;13.48;;;10.30;;
15012;SDS011;7603;49.432;11.418;2024-01-07T02:35:44;11.68;;;10.27;;
15012;SDS011;7603;49.432;11.418;2024-01-07T02:38:09;12.88;;;11.43;;
15012;SDS011;7603;49.432;11.418;2024-01-07T02:40:35;13.13;;;11.07;;
15012;SDS011;7603;49.432;11.418;2024-01-07T02:43:00;12.30;;;11.00;;
15012;SDS011;7603;49.432;11.418;2024-01-07T02:45:26;15.70;;;10.30;;
15012;SDS011;7603;49.432;11.418;2024-01-07T02:47:51;11.95;;;10.50;;
15012;SDS011;7603;49.432;11.418;2024-01-07T02:50:17;11.70;;;10.52;;
15012;SDS011;7603;49.432;11.418;2024-01-07T02:52:43;10.95;;;9.73;;
15012;SDS011;7603;49.432;11.418;2024-01-07T02:55:08;10.27;;;9.23;;
15012;SDS011;7603;49.432;11.418;2024-01-07T02:57:34;12.23;;;10.45;;
15012;SDS011;7603;49.432;11.418;2024-01-07T03:00:00;10.30;;;9.25;;
15012;SDS011;7603;49.432;11.418;2024-01-07T03:02:27;10.55;;;9.45;;
15012;SDS011;7603;49.432;11.418;2024-01-07T03:04:53;12.50;;;9.75;;
15012;SDS011;7603;49.432;11.418;2024-01-07T03:07:18;12.38;;;9.20;;
15012;SDS011;7603;49.432;11.418;2024-01-07T03:09:44;11.43;;;10.07;;
15012;SDS011;7603;49.432;11.418;2024-01-07T03:12:10;12.55;;;10.52;;
15012;SDS011;7603;49.432;11.418;2024-01-07T03:14:35;12.85;;;9.50;;
15012;SDS011;7603;49.432;11.418;2024-01-07T03:17:01;12.48;;;9.73;;
15012;SDS011;7603;49.432;11.418;2024-01-07T03:19:26;11.80;;;9.88;;
15012;SDS011;7603;49.432;11.418;2024-01-07T03:21:52;11.60;;;9.90;;
15012;SDS011;7603;49.432;11.418;2024-01-07T03:24:17;11.32;;;10.15;;
15012;SDS011;7603;49.432;11.418;2024-01-07T03:26:43;13.95;;;9.80;;
15012;SDS011;7603;49.432;11.418;2024-01-07T03:29:09;14.15;;;10.40;;
15012;SDS011;7603;49.432;11.418;2024-01-07T03:31:34;12.90;;;10.05;;
15012;SDS011;7603;49.432;11.418;2024-01-07T03:34:00;11.52;;;9.80;;
15012;SDS011;7603;49.432;11.418;2024-01-07T03:36:25;12.75;;;9.95;;
15012;SDS011;7603;49.432;11.418;2024-01-07T03:38:51;14.85;;;10.55;;
15012;SDS011;7603;49.432;11.418;2024-01-07T03:41:19;11.50;;;10.00;;
15012;SDS011;7603;49.432;11.418;2024-01-07T03:43:48;11.50;;;10.10;;
15012;SDS011;7603;49.432;11.418;2024-01-07T03:46:15;13.37;;;9.67;;
15012;SDS011;7603;49.432;11.418;2024-01-07T03:48:41;15.10;;;10.68;;
15012;SDS011;7603;49.432;11.418;2024-01-07T03:51:07;15.13;;;9.70;;
15012;SDS011;7603;49.432;11.418;2024-01-07T03:53:33;12.40;;;10.38;;
15012;SDS011;7603;49.432;11.418;2024-01-07T03:55:58;14.23;;;10.18;;
15012;SDS011;7603;49.432;11.418;2024-01-07T03:58:24;13.90;;;9.38;;
15012;SDS011;7603;49.432;11.418;2024-01-07T04:00:50;15.85;;;10.90;;
15012;SDS011;7603;49.432;11.418;2024-01-07T04:03:15;13.95;;;9.88;;
15012;SDS011;7603;49.432;11.418;2024-01-07T04:05:41;10.27;;;9.07;;
15012;SDS011;7603;49.432;11.418;2024-01-07T04:08:10;13.63;;;9.85;;
15012;SDS011;7603;49.432;11.418;2024-01-07T04:10:36;12.95;;;10.15;;
15012;SDS011;7603;49.432;11.418;2024-01-07T04:13:03;14.40;;;10.30;;
15012;SDS011;7603;49.432;11.418;2024-01-07T04:15:29;12.65;;;9.70;;
15012;SDS011;7603;49.432;11.418;2024-01-07T04:17:55;17.65;;;11.30;;
15012;SDS011;7603;49.432;11.418;2024-01-07T04:20:20;11.18;;;9.98;;
15012;SDS011;7603;49.432;11.418;2024-01-07T04:22:46;13.63;;;10.23;;
15012;SDS011;7603;49.432;11.418;2024-01-07T04:25:12;12.50;;;9.77;;
15012;SDS011;7603;49.432;11.418;2024-01-07T04:27:37;14.93;;;9.75;;
15012;SDS011;7603;49.432;11.418;2024-01-07T04:30:04;12.80;;;10.07;;
15012;SDS011;7603;49.432;11.418;2024-01-07T04:32:30;9.75;;;8.10;;
15012;SDS011;7603;49.432;11.418;2024-01-07T04:34:56;10.57;;;8.60;;
15012;SDS011;7603;49.432;11.418;2024-01-07T04:37:23;10.48;;;8.80;;
15012;SDS011;7603;49.432;11.418;2024-01-07T04:39:49;10.10;;;9.10;;
15012;SDS011;7603;49.432;11.418;2024-01-07T04:42:15;12.32;;;9.25;;
15012;SDS011;7603;49.432;11.418;2024-01-07T04:44:41;10.57;;;8.02;;
15012;SDS011;7603;49.432;11.418;2024-01-07T04:47:26;9.15;;;8.15;;
15012;SDS011;7603;49.432;11.418;2024-01-07T04:49:53;11.23;;;8.95;;
15012;SDS011;7603;49.432;11.418;2024-01-07T04:52:19;9.65;;;8.45;;
15012;SDS011;7603;49.432;11.418;2024-01-07T04:54:46;10.23;;;8.20;;
15012;SDS011;7603;49.432;11.418;2024-01-07T04:57:12;9.48;;;8.23;;
15012;SDS011;7603;49.432;11.418;2024-01-07T04:59:37;9.88;;;7.68;;
15012;SDS011;7603;49.432;11.418;2024-01-07T05:02:03;9.23;;;7.50;;
15012;SDS011;7603;49.432;11.418;2024-01-07T05:04:28;10.30;;;8.73;;
15012;SDS011;7603;49.432;11.418;2024-01-07T05:06:54;9.55;;;7.70;;
15012;SDS011;7603;49.432;11.418;2024-01-07T05:09:20;8.52;;;7.63;;
15012;SDS011;7603;49.432;11.418;2024-01-07T05:11:45;9.27;;;7.75;;
15012;SDS011;7603;49.432;11.418;2024-01-07T05:14:11;9.40;;;8.07;;
15012;SDS011;7603;49.432;11.418;2024-01-07T05:16:37;9.43;;;8.18;;
15012;SDS011;7603;49.432;11.418;2024-01-07T05:19:02;7.85;;;7.00;;
15012;SDS011;7603;49.432;11.418;2024-01-07T05:21:28;7.85;;;6.57;;
15012;SDS011;7603;49.432;11.418;2024-01-07T05:23:54;8.30;;;6.55;;
15012;SDS011;7603;49.432;11.418;2024-01-07T05:26:19;7.20;;;6.50;;
15012;SDS011;7603;49.432;11.418;2024-01-07T05:28:46;8.40;;;6.85;;
15012;SDS011;7603;49.432;11.418;2024-01-07T05:31:18;7.85;;;6.78;;
15012;SDS011;7603;49.432;11.418;2024-01-07T05:33:44;7.80;;;7.00;;
15012;SDS011;7603;49.432;11.418;2024-01-07T05:36:13;8.57;;;6.53;;
15012;SDS011;7603;49.432;11.418;2024-01-07T05:38:42;7.43;;;6.70;;
15012;SDS011;7603;49.432;11.418;2024-01-07T05:41:08;7.85;;;7.05;;
15012;SDS011;7603;49.432;11.418;2024-01-07T05:46:01;7.60;;;6.80;;
15012;SDS011;7603;49.432;11.418;2024-01-07T05:48:26;7.90;;;7.10;;
15012;SDS011;7603;49.432;11.418;2024-01-07T05:50:52;10.35;;;8.55;;
15012;SDS011;7603;49.432;11.418;2024-01-07T05:53:18;11.55;;;8.48;;
15012;SDS011;7603;49.432;11.418;2024-01-07T05:55:43;8.20;;;7.20;;
15012;SDS011;7603;49.432;11.418;2024-01-07T05:58:09;7.97;;;7.05;;
15012;SDS011;7603;49.432;11.418;2024-01-07T06:00:35;7.70;;;6.80;;
15012;SDS011;7603;49.432;11.418;2024-01-07T06:03:00;7.57;;;6.75;;
15012;SDS011;7603;49.432;11.418;2024-01-07T06:05:26;9.82;;;7.05;;
15012;SDS011;7603;49.432;11.418;2024-01-07T06:07:52;8.27;;;6.88;;
15012;SDS011;7603;49.432;11.418;2024-01-07T06:10:18;8.02;;;6.57;;
15012;SDS011;7603;49.432;11.418;2024-01-07T06:12:43;16.73;;;11.32;;
15012;SDS011;7603;49.432;11.418;2024-01-07T06:15:09;13.73;;;10.30;;
15012;SDS011;7603;49.432;11.418;2024-01-07T06:17:35;19.20;;;11.98;;
15012;SDS011;7603;49.432;11.418;2024-01-07T06:20:00;9.38;;;8.48;;
15012;SDS011;7603;49.432;11.418;2024-01-07T06:22:26;12.65;;;9.35;;
15012;SDS011;7603;49.432;11.418;2024-01-07T06:24:51;10.48;;;8.50;;
15012;SDS011;7603;49.432;11.418;2024-01-07T06:27:17;9.82;;;7.40;;
15012;SDS011;7603;49.432;11.418;2024-01-07T06:29:43;8.67;;;7.27;;
15012;SDS011;7603;49.432;11.418;2024-01-07T06:32:08;12.43;;;9.13;;
15012;SDS011;7603;49.432;11.418;2024-01-07T06:34:37;17.98;;;11.45;;
15012;SDS011;7603;49.432;11.418;2024-01-07T06:37:03;15.85;;;10.82;;
15012;SDS011;7603;49.432;11.418;2024-01-07T06:39:28;17.00;;;11.30;;
15012;SDS011;7603;49.432;11.418;2024-01-07T06:41:54;17.13;;;11.00;;
15012;SDS011;7603;49.432;11.418;2024-01-07T06:44:20;21.67;;;14.43;;
15012;SDS011;7603;49.432;11.418;2024-01-07T06:46:45;11.83;;;9.80;;
15012;SDS011;7603;49.432;11.418;2024-01-07T06:49:11;8.77;;;7.82;;
15012;SDS011;7603;49.432;11.418;2024-01-07T06:51:37;9.83;;;8.23;;
15012;SDS011;7603;49.432;11.418;2024-01-07T06:54:03;12.73;;;7.97;;
15012;SDS011;7603;49.432;11.418;2024-01-07T06:56:29;8.33;;;7.30;;
15012;SDS011;7603;49.432;11.418;2024-01-07T06:58:55;11.85;;;8.00;;
15012;SDS011;7603;49.432;11.418;2024-01-07T07:01:21;15.88;;;10.13;;
15012;SDS011;7603;49.432;11.418;2024-01-07T07:03:48;10.30;;;7.68;;
15012;SDS011;7603;49.432;11.418;2024-01-07T07:06:14;9.63;;;8.10;;
15012;SDS011;7603;49.432;11.418;2024-01-07T07:08:40;11.82;;;8.13;;
15012;SDS011;7603;49.432;11.418;2024-01-07T07:11:06;13.33;;;9.63;;
15012;SDS011;7603;49.432;11.418;2024-01-07T07:13:31;11.20;;;8.50;;
15012;SDS011;7603;49.432;11.418;2024-01-07T07:15:57;13.67;;;8.73;;
15012;SDS011;7603;49.432;11.418;2024-01-07T07:18:22;8.95;;;7.57;;
15012;SDS011;7603;49.432;11.418;2024-01-07T07:20:49;11.43;;;9.20;;
15012;SDS011;7603;49.432;11.418;2024-01-07T07:23:15;12.43;;;10.65;;
15012;SDS011;7603;49.432;11.418;2024-01-07T07:25:40;16.38;;;13.55;;
15012;SDS011;7603;49.432;11.418;2024-01-07T07:28:06;11.13;;;9.23;;
15012;SDS011;7603;49.432;11.418;2024-01-07T07:30:31;14.02;;;10.55;;
15012;SDS011;7603;49.432;11.418;2024-01-07T07:32:57;9.57;;;8.43;;
15012;SDS011;7603;49.432;11.418;2024-01-07T07:35:23;14.23;;;9.25;;
15012;SDS011;7603;49.432;11.418;2024-01-07T07:37:48;15.20;;;10.00;;
15012;SDS011;7603;49.432;11.418;2024-01-07T07:40:14;13.23;;;10.25;;
15012;SDS011;7603;49.432;11.418;2024-01-07T07:42:40;14.30;;;10.52;;
15012;SDS011;7603;49.432;11.418;2024-01-07T07:45:06;15.87;;;12.10;;
15012;SDS011;7603;49.432;11.418;2024-01-07T07:47:32;11.93;;;10.60;;
15012;SDS011;7603;49.432;11.418;2024-01-07T07:49:57;14.07;;;10.03;;
15012;SDS011;7603;49.432;11.418;2024-01-07T07:52:23;11.33;;;9.90;;
15012;SDS011;7603;49.432;11.418;2024-01-07T07:54:53;13.52;;;10.13;;
15012;SDS011;7603;49.432;11.418;2024-01-07T07:57:19;11.43;;;8.52;;
15012;SDS011;7603;49.432;11.418;2024-01-07T07:59:47;15.33;;;10.77;;
15012;SDS011;7603;49.432;11.418;2024-01-07T08:02:14;14.07;;;10.60;;
15012;SDS011;7603;49.432;11.418;2024-01-07T08:04:39;14.63;;;10.90;;
15012;SDS011;7603;49.432;11.418;2024-01-07T08:07:07;15.50;;;11.50;;
15012;SDS011;7603;49.432;11.418;2024-01-07T08:09:33;15.63;;;12.33;;
15012;SDS011;7603;49.432;11.418;2024-01-07T08:12:02;16.17;;;12.30;;
15012;SDS011;7603;49.432;11.418;2024-01-07T08:14:28;16.47;;;12.43;;
15012;SDS011;7603;49.432;11.418;2024-01-07T08:16:54;18.23;;;13.75;;
15012;SDS011;7603;49.432;11.418;2024-01-07T08:19:19;22.37;;;12.90;;
15012;SDS011;7603;49.432;11.418;2024-01-07T08:21:45;17.57;;;12.03;;
15012;SDS011;7603;49.432;11.418;2024-01-07T08:24:11;18.55;;;13.73;;
15012;SDS011;7603;49.432;11.418;2024-01-07T08:26:37;17.13;;;12.60;;
15012;SDS011;7603;49.432;11.418;2024-01-07T08:29:03;18.20;;;13.10;;
15012;SDS011;7603;49.432;11.418;2024-01-07T08:31:29;18.88;;;13.75;;
15012;SDS011;7603;49.432;11.418;2024-01-07T08:33:55;17.42;;;12.63;;
15012;SDS011;7603;49.432;11.418;2024-01-07T08:36:20;18.73;;;13.13;;
15012;SDS011;7603;49.432;11.418;2024-01-07T08:38:46;17.73;;;12.20;;
15012;SDS011;7603;49.432;11.418;2024-01-07T08:41:14;19.00;;;12.67;;
15012;SDS011;7603;49.432;11.418;2024-01-07T08:43:41;18.53;;;12.43;;
15012;SDS011;7603;49.432;11.418;2024-01-07T08:46:07;18.92;;;13.90;;
15012;SDS011;7603;49.432;11.418;2024-01-07T08:48:32;17.80;;;13.50;;
15012;SDS011;7603;49.432;11.418;2024-01-07T08:50:58;17.47;;;13.00;;
15012;SDS011;7603;49.432;11.418;2024-01-07T08:56:46;17.67;;;13.07;;
15012;SDS011;7603;49.432;11.418;2024-01-07T08:59:11;20.33;;;13.70;;
15012;SDS011;7603;49.432;11.418;2024-01-07T09:01:37;19.67;;;12.47;;
15012;SDS011;7603;49.432;11.418;2024-01-07T09:04:02;21.57;;;13.83;;
15012;SDS011;7603;49.432;11.418;2024-01-07T09:06:28;17.33;;;13.30;;
15012;SDS011;7603;49.432;11.418;2024-01-07T09:08:53;21.90;;;13.80;;
15012;SDS011;7603;49.432;11.418;2024-01-07T09:11:19;17.50;;;12.37;;
15012;SDS011;7603;49.432;11.418;2024-01-07T09:13:45;17.10;;;12.60;;
15012;SDS011;7603;49.432;11.418;2024-01-07T09:16:13;18.40;;;12.33;;
15012;SDS011;7603;49.432;11.418;2024-01-07T09:18:39;17.45;;;12.15;;
15012;SDS011;7603;49.432;11.418;2024-01-07T09:21:05;18.20;;;12.25;;
15012;SDS011;7603;49.432;11.418;2024-01-07T09:23:31;20.77;;;14.10;;
15012;SDS011;7603;49.432;11.418;2024-01-07T09:25:58;15.07;;;12.48;;
15012;SDS011;7603;49.432;11.418;2024-01-07T09:28:24;20.20;;;12.70;;
15012;SDS011;7603;49.432;11.418;2024-01-07T09:30:50;21.07;;;14.67;;
15012;SDS011;7603;49.432;11.418;2024-01-07T09:33:15;17.47;;;13.43;;
15012;SDS011;7603;49.432;11.418;2024-01-07T09:35:41;23.13;;;16.33;;
15012;SDS011;7603;49.432;11.418;2024-01-07T09:38:08;19.92;;;16.10;;
15012;SDS011;7603;49.432;11.418;2024-01-07T09:40:34;18.77;;;13.53;;
15012;SDS011;7603;49.432;11.418;2024-01-07T09:43:00;18.98;;;16.20;;
15012;SDS011;7603;49.432;11.418;2024-01-07T09:45:25;18.67;;;13.35;;
15012;SDS011;7603;49.432;11.418;2024-01-07T09:47:53;18.63;;;13.27;;
15012;SDS011;7603;49.432;11.418;2024-01-07T09:50:19;15.53;;;13.33;;
15012;SDS011;7603;49.432;11.418;2024-01-07T09:52:45;25.30;;;15.73;;
15012;SDS011;7603;49.432;11.418;2024-01-07T09:55:47;21.97;;;14.63;;
15012;SDS011;7603;49.432;11.418;2024-01-07T09:58:06;21.95;;;14.60;;
15012;SDS011;7603;49.432;11.418;2024-01-07T10:00:32;21.33;;;16.07;;
15012;SDS011;7603;49.432;11.418;2024-01-07T10:02:58;18.67;;;12.93;;
15012;SDS011;7603;49.432;11.418;2024-01-07T10:05:23;19.93;;;13.90;;
15012;SDS011;7603;49.432;11.418;2024-01-07T10:07:49;21.87;;;13.17;;
15012;SDS011;7603;49.432;11.418;2024-01-07T10:10:15;19.03;;;13.20;;
15012;SDS011;7603;49.432;11.418;2024-01-07T10:12:43;18.77;;;12.93;;
15012;SDS011;7603;49.432;11.418;2024-01-07T10:15:10;18.97;;;12.07;;
15012;SDS011;7603;49.432;11.418;2024-01-07T10:17:36;17.50;;;11.63;;
15012;SDS011;7603;49.432;11.418;2024-01-07T10:20:04;20.97;;;12.73;;
15012;SDS011;7603;49.432;11.418;2024-01-07T10:22:30;17.10;;;12.03;;
15012;SDS011;7603;49.432;11.418;2024-01-07T10:24:57;19.97;;;11.80;;
15012;SDS011;7603;49.432;11.418;2024-01-07T10:27:23;19.00;;;13.13;;
15012;SDS011;7603;49.432;11.418;2024-01-07T10:29:48;14.53;;;11.57;;
15012;SDS011;7603;49.432;11.418;2024-01-07T10:32:16;17.97;;;12.33;;
15012;SDS011;7603;49.432;11.418;2024-01-07T10:34:45;15.53;;;12.03;;
15012;SDS011;7603;49.432;11.418;2024-01-07T10:37:14;17.33;;;12.27;;
15012;SDS011;7603;49.432;11.418;2024-01-07T10:39:40;19.13;;;13.47;;
15012;SDS011;7603;49.432;11.418;2024-01-07T10:42:05;16.00;;;11.33;;
15012;SDS011;7603;49.432;11.418;2024-01-07T10:44:32;17.17;;;11.60;;
15012;SDS011;7603;49.432;11.418;2024-01-07T10:46:58;18.47;;;12.37;;
15012;SDS011;7603;49.432;11.418;2024-01-07T10:49:25;18.13;;;13.37;;
15012;SDS011;7603;49.432;11.418;2024-01-07T10:54:32;18.40;;;11.80;;
15012;SDS011;7603;49.432;11.418;2024-01-07T10:56:59;18.77;;;12.93;;
15012;SDS011;7603;49.432;11.418;2024-01-07T10:59:43;15.67;;;11.67;;
15012;SDS011;7603;49.432;11.418;2024-01-07T11:02:10;22.00;;;12.87;;
15012;SDS011;7603;49.432;11.418;2024-01-07T11:07:43;22.53;;;12.80;;
15012;SDS011;7603;49.432;11.418;2024-01-07T11:10:16;18.65;;;12.13;;
15012;SDS011;7603;49.432;11.418;2024-01-07T11:12:55;19.90;;;11.07;;
15012;SDS011;7603;49.432;11.418;2024-01-07T11:18:20;17.63;;;12.57;;
15012;SDS011;7603;49.432;11.418;2024-01-07T11:20:46;19.80;;;12.53;;
15012;SDS011;7603;49.432;11.418;2024-01-07T11:26:05;16.30;;;11.37;;
15012;SDS011;7603;49.432;11.418;2024-01-07T11:28:44;17.87;;;12.07;;
15012;SDS011;7603;49.432;11.418;2024-01-07T11:34:07;16.97;;;12.70;;
15012;SDS011;7603;49.432;11.418;2024-01-07T11:36:34;16.63;;;12.40;;
15012;SDS011;7603;49.432;11.418;2024-01-07T11:39:01;23.23;;;14.27;;
15012;SDS011;7603;49.432;11.418;2024-01-07T11:41:31;13.10;;;11.33;;
15012;SDS011;7603;49.432;11.418;2024-01-07T11:43:59;18.57;;;11.23;;
15012;SDS011;7603;49.432;11.418;2024-01-07T11:46:26;18.67;;;11.53;;
15012;SDS011;7603;49.432;11.418;2024-01-07T11:48:53;15.33;;;11.43;;
15012;SDS011;7603;49.432;11.418;2024-01-07T11:51:24;15.70;;;12.23;;
15012;SDS011;7603;49.432;11.418;2024-01-07T11:53:55;19.40;;;11.87;;
15012;SDS011;7603;49.432;11.418;2024-01-07T11:56:21;18.60;;;11.37;;
15012;SDS011;7603;49.432;11.418;2024-01-07T11:58:47;15.63;;;11.33;;
15012;SDS011;7603;49.432;11.418;2024-01-07T12:01:14;19.67;;;13.63;;
15012;SDS011;7603;49.432;11.418;2024-01-07T12:03:41;18.50;;;13.47;;
15012;SDS011;7603;49.432;11.418;2024-01-07T12:06:08;22.47;;;14.57;;
15012;SDS011;7603;49.432;11.418;2024-01-07T12:08:38;17.60;;;13.30;;
15012;SDS011;7603;49.432;11.418;2024-01-07T12:11:04;15.80;;;11.37;;
15012;SDS011;7603;49.432;11.418;2024-01-07T12:13:30;18.20;;;12.37;;
15012;SDS011;7603;49.432;11.418;2024-01-07T12:15:56;14.97;;;11.63;;
15012;SDS011;7603;49.432;11.418;2024-01-07T12:18:22;21.70;;;13.27;;
15012;SDS011;7603;49.432;11.418;2024-01-07T12:20:54;18.37;;;12.20;;
15012;SDS011;7603;49.432;11.418;2024-01-07T12:23:23;18.83;;;11.83;;
15012;SDS011;7603;49.432;11.418;2024-01-07T12:25:50;21.17;;;15.03;;
15012;SDS011;7603;49.432;11.418;2024-01-07T12:28:19;18.57;;;12.73;;
15012;SDS011;7603;49.432;11.418;2024-01-07T12:30:45;17.40;;;12.77;;
15012;SDS011;7603;49.432;11.418;2024-01-07T12:33:17;12.93;;;9.63;;
15012;SDS011;7603;49.432;11.418;2024-01-07T12:35:44;15.87;;;11.20;;
15012;SDS011;7603;49.432;11.418;2024-01-07T12:38:12;14.57;;;10.93;;
15012;SDS011;7603;49.432;11.418;2024-01-07T12:40:38;14.90;;;10.23;;
15012;SDS011;7603;49.432;11.418;2024-01-07T12:43:04;17.37;;;10.50;;
15012;SDS011;7603;49.432;11.418;2024-01-07T12:45:32;14.33;;;11.33;;
15012;SDS011;7603;49.432;11.418;2024-01-07T12:47:58;16.80;;;11.37;;
15012;SDS011;7603;49.432;11.418;2024-01-07T12:50:27;14.70;;;10.63;;
15012;SDS011;7603;49.432;11.418;2024-01-07T12:52:54;15.77;;;11.73;;
15012;SDS011;7603;49.432;11.418;2024-01-07T12:55:20;17.20;;;11.13;;
15012;SDS011;7603;49.432;11.418;2024-01-07T12:57:47;13.53;;;10.83;;
15012;SDS011;7603;49.432;11.418;2024-01-07T13:00:13;12.90;;;9.43;;
15012;SDS011;7603;49.432;11.418;2024-01-07T13:02:39;13.53;;;10.83;;
15012;SDS011;7603;49.432;11.418;2024-01-07T13:05:05;13.17;;;10.60;;
15012;SDS011;7603;49.432;11.418;2024-01-07T13:07:32;13.30;;;10.17;;
15012;SDS011;7603;49.432;11.418;2024-01-07T13:09:57;12.83;;;10.37;;
15012;SDS011;7603;49.432;11.418;2024-01-07T13:12:23;12.90;;;9.93;;
15012;SDS011;7603;49.432;11.418;2024-01-07T13:14:49;11.83;;;10.10;;
15012;SDS011;7603;49.432;11.418;2024-01-07T13:17:14;13.67;;;10.00;;
15012;SDS011;7603;49.432;11.418;2024-01-07T13:19:40;14.37;;;11.00;;
15012;SDS011;7603;49.432;11.418;2024-01-07T13:22:06;10.13;;;8.67;;
15012;SDS011;7603;49.432;11.418;2024-01-07T13:24:32;15.20;;;11.03;;
15012;SDS011;7603;49.432;11.418;2024-01-07T13:26:58;12.07;;;9.60;;
15012;SDS011;7603;49.432;11.418;2024-01-07T13:29:24;12.60;;;9.33;;
15012;SDS011;7603;49.432;11.418;2024-01-07T13:31:49;14.20;;;9.47;;
15012;SDS011;7603;49.432;11.418;2024-01-07T13:34:15;12.37;;;8.37;;
15012;SDS011;7603;49.432;11.418;2024-01-07T13:36:43;12.90;;;10.07;;
15012;SDS011;7603;49.432;11.418;2024-01-07T13:39:11;14.07;;;10.00;;
15012;SDS011;7603;49.432;11.418;2024-01-07T13:41:37;12.47;;;8.87;;
15012;SDS011;7603;49.432;11.418;2024-01-07T13:44:04;12.73;;;8.93;;
15012;SDS011;7603;49.432;11.418;2024-01-07T13:46:29;18.83;;;13.03;;
15012;SDS011;7603;49.432;11.418;2024-01-07T13:48:55;13.23;;;9.77;;
15012;SDS011;7603;49.432;11.418;2024-01-07T13:51:21;9.70;;;8.47;;
15012;SDS011;7603;49.432;11.418;2024-01-07T13:53:46;11.32;;;7.05;;
15012;SDS011;7603;49.432;11.418;2024-01-07T13:56:12;12.23;;;8.70;;
15012;SDS011;7603;49.432;11.418;2024-01-07T13:58:38;10.10;;;8.00;;
15012;SDS011;7603;49.432;11.418;2024-01-07T14:01:04;14.60;;;10.13;;
15012;SDS011;7603;49.432;11.418;2024-01-07T14:03:32;11.77;;;8.93;;
15012;SDS011;7603;49.432;11.418;2024-01-07T14:05:58;10.17;;;8.43;;
15012;SDS011;7603;49.432;11.418;2024-01-07T14:08:25;11.33;;;7.50;;
15012;SDS011;7603;49.432;11.418;2024-01-07T14:10:51;9.83;;;7.93;;
15012;SDS011;7603;49.432;11.418;2024-01-07T14:13:17;12.03;;;8.47;;
15012;SDS011;7603;49.432;11.418;2024-01-07T14:15:44;10.40;;;8.23;;
15012;SDS011;7603;49.432;11.418;2024-01-07T14:18:09;11.63;;;7.23;;
15012;SDS011;7603;49.432;11.418;2024-01-07T14:20:39;8.00;;;7.07;;
15012;SDS011;7603;49.432;11.418;2024-01-07T14:23:05;9.30;;;6.93;;
15012;SDS011;7603;49.432;11.418;2024-01-07T14:25:31;9.55;;;7.60;;
15012;SDS011;7603;49.432;11.418;2024-01-07T14:27:56;8.87;;;6.90;;
15012;SDS011;7603;49.432;11.418;2024-01-07T14:30:22;12.07;;;9.37;;
15012;SDS011;7603;49.432;11.418;2024-01-07T14:32:47;11.70;;;8.53;;
15012;SDS011;7603;49.432;11.418;2024-01-07T14:35:13;9.33;;;8.37;;
15012;SDS011;7603;49.432;11.418;2024-01-07T14:37:39;7.87;;;6.10;;
15012;SDS011;7603;49.432;11.418;2024-01-07T14:40:05;7.43;;;6.43;;
15012;SDS011;7603;49.432;11.418;2024-01-07T14:42:31;6.60;;;5.97;;